createdAt,value
2019-06-26T00:01:05.985Z,48.5
2019-06-26T00:02:36.067Z,48.6
2019-06-26T00:04:06.152Z,48.6
2019-06-26T00:10:37.235Z,46.6
2019-06-26T00:12:07.297Z,46.3
2019-06-26T00:13:37.353Z,46.6
2019-06-26T00:15:07.413Z,46.4
2019-06-26T00:16:37.498Z,46.7
2019-06-26T00:18:07.660Z,46.7
2019-06-26T00:19:37.668Z,47.3
2019-06-26T00:21:07.704Z,47.5
2019-06-26T00:22:37.764Z,47.3
2019-06-26T00:24:07.868Z,47.7
2019-06-26T00:25:37.919Z,48.2
2019-06-26T00:27:07.972Z,49
2019-06-26T00:28:38.032Z,48.9
2019-06-26T00:30:08.092Z,49.2
2019-06-26T00:31:38.182Z,48.6
2019-06-26T00:33:08.239Z,47.9
2019-06-26T00:34:38.430Z,47.8
2019-06-26T00:36:08.392Z,47.4
2019-06-26T00:37:38.453Z,47.4
2019-06-26T00:39:08.512Z,47.3
2019-06-26T00:40:38.598Z,47.4
2019-06-26T00:42:08.657Z,47.3
2019-06-26T00:43:42.490Z,47.7
2019-06-26T00:45:08.795Z,48.7
2019-06-26T00:46:38.880Z,49.4
2019-06-26T00:48:08.954Z,50
2019-06-26T00:49:39.011Z,50.5
2019-06-26T00:51:09.135Z,51.1
2019-06-26T00:52:39.191Z,50.7
2019-06-26T00:54:09.250Z,50.3
2019-06-26T00:55:39.308Z,50
2019-06-26T00:57:09.391Z,50.6
2019-06-26T00:58:39.452Z,50.5
2019-06-26T01:00:09.514Z,51.2
2019-06-26T01:01:39.677Z,51.4
2019-06-26T01:03:09.657Z,51.4
2019-06-26T01:04:39.714Z,51.7
2019-06-26T01:06:09.772Z,51.8
2019-06-26T01:07:39.857Z,51.8
2019-06-26T01:09:09.919Z,51.2
2019-06-26T01:10:39.980Z,51
2019-06-26T01:12:10.063Z,50.8
2019-06-26T01:13:40.125Z,50.5
2019-06-26T01:15:10.190Z,50.7
2019-06-26T01:16:40.271Z,51.1
2019-06-26T01:18:10.328Z,51.8
2019-06-26T01:19:40.387Z,52.7
2019-06-26T01:21:10.443Z,53.9
2019-06-26T01:22:40.526Z,54.4
2019-06-26T01:24:10.585Z,54.3
2019-06-26T01:25:40.643Z,54.4
2019-06-26T01:27:10.735Z,55.1
2019-06-26T01:28:40.786Z,55.7
2019-06-26T01:30:10.844Z,56.2
2019-06-26T01:31:40.928Z,56.6
2019-06-26T01:33:10.988Z,57.3
2019-06-26T01:34:41.046Z,57.9
2019-06-26T01:36:11.116Z,58.4
2019-06-26T01:37:41.238Z,59
2019-06-26T01:39:11.249Z,59.1
2019-06-26T01:40:41.308Z,58.8
2019-06-26T01:42:11.393Z,58.7
2019-06-26T01:43:41.453Z,58.9
2019-06-26T01:45:11.511Z,58.7
2019-06-26T01:46:41.576Z,59
2019-06-26T01:48:11.654Z,58.9
2019-06-26T01:49:41.718Z,58.7
2019-06-26T01:51:11.770Z,58.3
2019-06-26T01:52:41.859Z,58.3
2019-06-26T01:54:11.915Z,58.8
2019-06-26T01:55:41.973Z,59.3
2019-06-26T01:57:12.321Z,59.2
2019-06-26T01:58:42.393Z,58.9
2019-06-26T02:00:12.439Z,58.6
2019-06-26T02:01:42.499Z,58.3
2019-06-26T02:03:12.584Z,58.2
2019-06-26T02:04:42.643Z,58.1
2019-06-26T02:06:12.703Z,58.7
2019-06-26T02:07:42.803Z,58.8
2019-06-26T02:09:12.864Z,59.2
2019-06-26T02:10:42.921Z,58.7
2019-06-26T02:12:13.021Z,58.5
2019-06-26T02:13:43.063Z,58.1
2019-06-26T02:15:13.127Z,58.4
2019-06-26T02:16:43.195Z,58.4
2019-06-26T02:18:13.266Z,59.4
2019-06-26T02:19:43.323Z,59.7
2019-06-26T02:21:13.383Z,60
2019-06-26T02:22:43.467Z,60.1
2019-06-26T02:24:13.526Z,60
2019-06-26T02:25:43.583Z,59.9
2019-06-26T02:27:13.665Z,60
2019-06-26T02:28:43.769Z,60
2019-06-26T02:36:44.860Z,58.9
2019-06-26T02:38:14.935Z,59.3
2019-06-26T02:39:45.000Z,59
2019-06-26T02:41:15.050Z,60
2019-06-26T02:42:45.108Z,60.7
2019-06-26T02:44:15.196Z,61.2
2019-06-26T02:45:45.251Z,62
2019-06-26T02:47:19.935Z,62
2019-06-26T02:48:45.422Z,62
2019-06-26T02:50:15.451Z,62.8
2019-06-26T02:51:45.512Z,62.4
2019-06-26T02:53:15.601Z,62.1
2019-06-26T02:54:45.663Z,61.4
2019-06-26T02:56:15.723Z,60
2019-06-26T02:57:45.776Z,59.5
2019-06-26T02:59:15.862Z,58.9
2019-06-26T03:00:45.919Z,58.2
2019-06-26T03:02:15.979Z,58
2019-06-26T03:03:46.061Z,58.1
2019-06-26T03:05:16.118Z,58.1
2019-06-26T03:06:46.176Z,58.1
2019-06-26T03:08:16.234Z,57.9
2019-06-26T03:09:46.316Z,58
2019-06-26T03:11:16.376Z,58.4
2019-06-26T03:12:46.447Z,59
2019-06-26T03:14:16.518Z,59.4
2019-06-26T03:15:49.508Z,60
2019-06-26T03:17:16.636Z,60.4
2019-06-26T03:18:46.719Z,61
2019-06-26T03:20:16.780Z,61.4
2019-06-26T03:21:46.836Z,61.5
2019-06-26T03:23:16.895Z,61.5
2019-06-26T03:24:46.983Z,61.6
2019-06-26T03:26:17.042Z,61.1
2019-06-26T03:27:47.098Z,61.2
2019-06-26T03:29:17.182Z,61.5
2019-06-26T03:30:47.241Z,61.6
2019-06-26T03:32:17.300Z,61.3
2019-06-26T03:33:47.367Z,61.3
2019-06-26T03:35:17.439Z,61.1
2019-06-26T03:36:47.500Z,61.1
2019-06-26T03:38:17.555Z,60.9
2019-06-26T03:39:47.641Z,60.9
2019-06-26T03:41:17.699Z,60.7
2019-06-26T03:42:47.817Z,60.7
2019-06-26T03:44:17.829Z,60.5
2019-06-26T03:45:47.913Z,60.4
2019-06-26T03:47:17.978Z,60.4
2019-06-26T03:48:48.026Z,60.3
2019-06-26T03:50:18.112Z,60.3
2019-06-26T03:51:48.169Z,60.2
2019-06-26T03:53:18.227Z,60.1
2019-06-26T03:54:48.312Z,60
2019-06-26T03:56:18.374Z,60.2
2019-06-26T03:57:48.435Z,60.4
2019-06-26T03:59:18.483Z,60.7
2019-06-26T04:00:48.567Z,60.7
2019-06-26T04:02:18.627Z,60.7
2019-06-26T04:03:48.689Z,60.9
2019-06-26T04:05:18.771Z,61.5
2019-06-26T04:06:48.828Z,61.5
2019-06-26T04:08:18.887Z,61.5
2019-06-26T04:09:48.982Z,61.5
2019-06-26T04:11:19.040Z,61.4
2019-06-26T04:12:49.093Z,62.2
2019-06-26T04:14:19.267Z,62.4
2019-06-26T04:15:50.984Z,62.2
2019-06-26T04:17:19.344Z,62.6
2019-06-26T04:18:49.401Z,62.6
2019-06-26T04:20:19.488Z,62.3
2019-06-26T04:21:49.544Z,62.1
2019-06-26T04:23:19.603Z,61.8
2019-06-26T04:24:49.659Z,62.2
2019-06-26T04:26:19.742Z,62.1
2019-06-26T04:27:49.801Z,62.1
2019-06-26T04:29:19.858Z,62.2
2019-06-26T04:30:49.947Z,62.6
2019-06-26T04:32:20.007Z,62.1
2019-06-26T04:33:50.129Z,61.5
2019-06-26T04:35:20.147Z,61.6
2019-06-26T04:36:50.226Z,61.4
2019-06-26T04:38:20.264Z,59.5
2019-06-26T04:39:50.325Z,59.1
2019-06-26T04:41:20.408Z,59.7
2019-06-26T04:42:50.495Z,59.6
2019-06-26T04:44:20.544Z,59.2
2019-06-26T04:45:57.933Z,58.5
2019-06-26T04:47:20.686Z,57.9
2019-06-26T04:48:50.971Z,58
2019-06-26T04:50:20.810Z,57.8
2019-06-26T04:51:50.899Z,58.2
2019-06-26T04:53:20.981Z,58.3
2019-06-26T04:54:51.061Z,58.7
2019-06-26T05:01:22.150Z,58.9
2019-06-26T05:02:52.195Z,58.6
2019-06-26T05:04:22.251Z,58.1
2019-06-26T05:05:52.337Z,57.8
2019-06-26T05:07:22.392Z,57.2
2019-06-26T05:08:52.473Z,57.2
2019-06-26T05:10:22.510Z,57
2019-06-26T05:11:52.593Z,56.9
2019-06-26T05:13:22.651Z,56.7
2019-06-26T05:14:52.709Z,57
2019-06-26T05:16:22.799Z,56.6
2019-06-26T05:17:52.855Z,56.4
2019-06-26T05:19:22.908Z,57
2019-06-26T05:20:52.967Z,57.1
2019-06-26T05:22:23.050Z,56.5
2019-06-26T05:23:53.108Z,56.7
2019-06-26T05:25:23.174Z,56.5
2019-06-26T05:26:53.247Z,56
2019-06-26T05:28:23.305Z,55.8
2019-06-26T05:29:54.469Z,56
2019-06-26T05:31:23.448Z,56.3
2019-06-26T05:32:53.506Z,56.1
2019-06-26T05:34:23.565Z,56
2019-06-26T05:35:53.623Z,55.3
2019-06-26T05:37:23.707Z,57
2019-06-26T05:38:53.764Z,56.8
2019-06-26T05:40:23.820Z,56.8
2019-06-26T05:41:53.907Z,56.5
2019-06-26T05:43:23.971Z,56.1
2019-06-26T05:44:54.025Z,56.8
2019-06-26T05:46:30.848Z,57.3
2019-06-26T05:47:54.166Z,57.6
2019-06-26T05:49:24.220Z,57.9
2019-06-26T05:50:54.278Z,57.6
2019-06-26T05:52:24.364Z,57.1
2019-06-26T05:53:54.421Z,56.9
2019-06-26T05:55:24.496Z,56.3
2019-06-26T05:56:54.577Z,56.6
2019-06-26T05:58:24.627Z,55.8
2019-06-26T05:59:54.687Z,55.2
2019-06-26T06:01:24.757Z,54.7
2019-06-26T06:02:54.825Z,54.8
2019-06-26T06:04:24.910Z,54.4
2019-06-26T06:05:54.941Z,53.9
2019-06-26T06:07:25.027Z,54
2019-06-26T06:08:55.088Z,54.1
2019-06-26T06:10:25.145Z,54.1
2019-06-26T06:11:55.203Z,53.9
2019-06-26T06:13:25.293Z,54.1
2019-06-26T06:14:55.341Z,53.1
2019-06-26T06:16:25.400Z,52.4
2019-06-26T06:17:55.483Z,52.8
2019-06-26T06:19:25.541Z,53.7
2019-06-26T06:20:55.600Z,53.1
2019-06-26T06:22:27.506Z,53.3
2019-06-26T06:23:55.782Z,53.1
2019-06-26T06:25:25.798Z,52.4
2019-06-26T06:26:55.854Z,52.9
2019-06-26T06:28:25.939Z,52.9
2019-06-26T06:29:56.019Z,53.5
2019-06-26T06:31:26.105Z,53.8
2019-06-26T06:32:56.259Z,53.8
2019-06-26T06:34:26.347Z,53.5
2019-06-26T06:35:56.375Z,53.3
2019-06-26T06:37:26.435Z,53.7
2019-06-26T06:38:56.519Z,53.4
2019-06-26T06:40:26.577Z,53.3
2019-06-26T06:41:56.634Z,52.4
2019-06-26T06:43:26.717Z,51.4
2019-06-26T06:44:56.775Z,51.3
2019-06-26T06:46:26.836Z,52
2019-06-26T06:47:56.918Z,52.3
2019-06-26T06:49:26.978Z,52.8
2019-06-26T06:50:57.038Z,51.4
2019-06-26T06:52:27.096Z,51.1
2019-06-26T06:53:57.182Z,52
2019-06-26T06:55:27.239Z,52.6
2019-06-26T06:56:57.296Z,51.6
2019-06-26T06:58:30.128Z,51.3
2019-06-26T06:59:57.436Z,51.4
2019-06-26T07:01:27.493Z,51.3
2019-06-26T07:02:57.550Z,51.7
2019-06-26T07:04:27.635Z,52
2019-06-26T07:05:57.697Z,51.7
2019-06-26T07:07:27.749Z,51.4
2019-06-26T07:08:57.834Z,51.7
2019-06-26T07:10:27.892Z,50.7
2019-06-26T07:11:57.950Z,51.4
2019-06-26T07:13:28.035Z,50.9
2019-06-26T07:14:58.105Z,51.9
2019-06-26T07:16:28.174Z,51.2
2019-06-26T07:17:58.244Z,51.4
2019-06-26T07:19:28.377Z,51
2019-06-26T07:25:59.401Z,50.4
2019-06-26T07:27:29.458Z,51.3
2019-06-26T07:28:59.544Z,49.5
2019-06-26T07:30:29.599Z,50.4
2019-06-26T07:31:59.662Z,48.9
2019-06-26T07:33:29.716Z,49.5
2019-06-26T07:34:59.800Z,50.6
2019-06-26T07:36:29.872Z,50.9
2019-06-26T07:38:00.405Z,50.9
2019-06-26T07:39:30.003Z,51.4
2019-06-26T07:41:00.098Z,50.5
2019-06-26T07:42:30.122Z,49.1
2019-06-26T07:44:00.208Z,48.9
2019-06-26T07:45:30.266Z,48.8
2019-06-26T07:47:00.489Z,49.5
2019-06-26T07:48:30.399Z,49.5
2019-06-26T07:50:00.474Z,49.3
2019-06-26T07:51:30.555Z,49.6
2019-06-26T07:53:00.593Z,48.7
2019-06-26T07:54:30.674Z,48.7
2019-06-26T07:56:00.730Z,48.9
2019-06-26T07:57:30.800Z,49.1
2019-06-26T07:59:00.851Z,49.8
2019-06-26T08:00:31.761Z,49.4
2019-06-26T08:02:00.987Z,48.2
2019-06-26T08:03:31.055Z,48.5
2019-06-26T08:05:01.134Z,49.4
2019-06-26T08:06:31.192Z,49.3
2019-06-26T08:08:01.249Z,49.6
2019-06-26T08:09:31.342Z,48.2
2019-06-26T08:11:01.391Z,49
2019-06-26T08:12:31.450Z,49.1
2019-06-26T08:14:01.510Z,49.5
2019-06-26T08:15:31.599Z,49.9
2019-06-26T08:17:01.655Z,49.3
2019-06-26T08:18:31.710Z,49.6
2019-06-26T08:20:01.803Z,49.6
2019-06-26T08:21:31.856Z,50.5
2019-06-26T08:23:01.914Z,49.4
2019-06-26T08:24:31.995Z,48.6
2019-06-26T08:26:02.114Z,48.6
2019-06-26T08:27:32.114Z,48.8
2019-06-26T08:29:02.175Z,48.7
2019-06-26T08:30:32.261Z,48.9
2019-06-26T08:32:02.321Z,48.4
2019-06-26T08:33:32.381Z,48.3
2019-06-26T08:35:02.488Z,48.9
2019-06-26T08:36:32.530Z,48.9
2019-06-26T08:38:10.129Z,48.7
2019-06-26T08:39:32.642Z,49.1
2019-06-26T08:41:02.727Z,49
2019-06-26T08:42:32.783Z,48.5
2019-06-26T08:44:02.843Z,48.2
2019-06-26T08:45:32.925Z,47.4
2019-06-26T08:47:02.983Z,46.9
2019-06-26T08:48:39.320Z,47.7
2019-06-26T08:50:03.138Z,47.5
2019-06-26T08:51:33.182Z,47.3
2019-06-26T08:53:03.239Z,47.5
2019-06-26T08:54:33.297Z,47.8
2019-06-26T08:56:03.384Z,46.6
2019-06-26T08:57:33.439Z,46.5
2019-06-26T08:59:03.497Z,46.8
2019-06-26T09:00:33.600Z,46.9
2019-06-26T09:02:03.643Z,46.8
2019-06-26T09:03:33.747Z,45.5
2019-06-26T09:05:03.760Z,44.5
2019-06-26T09:06:33.843Z,46.2
2019-06-26T09:08:03.983Z,46.2
2019-06-26T09:09:33.995Z,45.6
2019-06-26T09:11:04.075Z,44.2
2019-06-26T09:12:34.135Z,46.6
2019-06-26T09:14:04.207Z,45.4
2019-06-26T09:15:34.282Z,45
2019-06-26T09:17:04.338Z,44.7
2019-06-26T09:18:35.996Z,42.8
2019-06-26T09:20:04.458Z,45.1
2019-06-26T09:21:34.556Z,42.5
2019-06-26T09:23:04.617Z,42.8
2019-06-26T09:24:34.674Z,44.1
2019-06-26T09:26:04.759Z,43.9
2019-06-26T09:27:34.817Z,43.9
2019-06-26T09:29:04.873Z,43.7
2019-06-26T09:30:34.932Z,43.2
2019-06-26T09:32:05.021Z,44.2
2019-06-26T09:33:35.076Z,42.7
2019-06-26T09:35:05.133Z,43.2
2019-06-26T09:36:35.218Z,43.1
2019-06-26T09:38:05.304Z,42.5
2019-06-26T09:39:35.341Z,43.6
2019-06-26T09:41:05.431Z,41.9
2019-06-26T09:42:35.511Z,40.5
2019-06-26T09:44:05.586Z,42.3
2019-06-26T09:50:36.630Z,39.5
2019-06-26T09:52:06.714Z,39.5
2019-06-26T09:53:46.874Z,40.3
2019-06-26T09:55:06.828Z,40.4
2019-06-26T09:56:36.916Z,40.9
2019-06-26T09:58:06.971Z,39.7
2019-06-26T09:59:37.032Z,40.3
2019-06-26T10:01:07.116Z,40.4
2019-06-26T10:02:37.175Z,39.9
2019-06-26T10:04:07.248Z,39
2019-06-26T10:05:37.300Z,39.8
2019-06-26T10:07:07.381Z,39.3
2019-06-26T10:08:37.438Z,39.2
2019-06-26T10:10:07.496Z,38.6
2019-06-26T10:11:37.579Z,38.9
2019-06-26T10:13:07.637Z,40.1
2019-06-26T10:14:46.914Z,40.6
2019-06-26T10:16:07.773Z,39.4
2019-06-26T10:17:37.845Z,39
2019-06-26T10:19:10.365Z,38.8
2019-06-26T10:20:37.962Z,39.8
2019-06-26T10:22:08.045Z,40.4
2019-06-26T10:23:38.102Z,39.5
2019-06-26T10:25:11.195Z,39.1
2019-06-26T10:26:38.249Z,37.4
2019-06-26T10:28:08.314Z,38.7
2019-06-26T10:29:38.366Z,38.8
2019-06-26T10:31:08.421Z,36.6
2019-06-26T10:32:38.507Z,37.1
2019-06-26T10:34:10.093Z,37.5
2019-06-26T10:35:38.623Z,35.8
2019-06-26T10:37:08.706Z,36.5
2019-06-26T10:38:38.766Z,35.8
2019-06-26T10:40:08.824Z,35.6
2019-06-26T10:41:38.883Z,36.1
2019-06-26T10:43:08.969Z,36.7
2019-06-26T10:44:39.023Z,36.4
2019-06-26T10:46:09.092Z,36.9
2019-06-26T10:47:39.920Z,35.8
2019-06-26T10:49:22.659Z,35.6
2019-06-26T10:50:48.533Z,35.3
2019-06-26T10:52:09.452Z,36.1
2019-06-26T10:53:39.461Z,36.4
2019-06-26T10:55:09.519Z,36.2
2019-06-26T10:56:39.582Z,35.7
2019-06-26T10:58:09.662Z,34.9
2019-06-26T10:59:39.722Z,36.3
2019-06-26T11:01:09.781Z,36.5
2019-06-26T11:02:39.865Z,35.2
2019-06-26T11:04:09.927Z,36
2019-06-26T11:05:39.983Z,37.9
2019-06-26T11:07:10.045Z,35.8
2019-06-26T11:08:40.139Z,35.3
2019-06-26T11:10:10.184Z,35
2019-06-26T11:11:40.243Z,36
2019-06-26T11:13:10.326Z,35.5
2019-06-26T11:14:40.384Z,35.5
2019-06-26T11:16:10.570Z,35.6
2019-06-26T11:17:40.532Z,36.2
2019-06-26T11:19:10.590Z,35.7
2019-06-26T11:20:40.658Z,36
2019-06-26T11:22:10.716Z,35.9
2019-06-26T11:23:40.797Z,35.3
2019-06-26T11:25:10.864Z,36.1
2019-06-26T11:26:40.914Z,35.9
2019-06-26T11:28:10.997Z,33.5
2019-06-26T11:29:41.056Z,33.8
2019-06-26T11:31:11.116Z,34.4
2019-06-26T11:32:41.250Z,35.7
2019-06-26T11:34:11.262Z,31.4
2019-06-26T11:35:41.345Z,32.5
2019-06-26T11:37:11.382Z,33.1
2019-06-26T11:38:41.468Z,33.5
2019-06-26T11:40:11.561Z,34.9
2019-06-26T11:41:41.834Z,35.4
2019-06-26T11:43:11.708Z,36
2019-06-26T11:44:41.752Z,34.8
2019-06-26T11:46:11.811Z,34.7
2019-06-26T11:47:45.456Z,34.5
2019-06-26T11:49:11.960Z,33.2
2019-06-26T11:50:42.009Z,33.5
2019-06-26T11:52:12.069Z,32.5
2019-06-26T11:53:42.152Z,34.4
2019-06-26T11:55:12.213Z,34.4
2019-06-26T11:56:42.276Z,34.8
2019-06-26T11:58:12.356Z,34.5
2019-06-26T11:59:42.413Z,34.6
2019-06-26T12:01:12.473Z,34.2
2019-06-26T12:02:42.532Z,36.1
2019-06-26T12:04:12.664Z,33.8
2019-06-26T12:05:42.733Z,35.1
2019-06-26T12:07:12.812Z,34.1
2019-06-26T12:08:42.895Z,33.2
2019-06-26T12:15:13.966Z,32.5
2019-06-26T12:16:44.099Z,33.1
2019-06-26T12:18:14.086Z,34.3
2019-06-26T12:19:44.147Z,33.1
2019-06-26T12:21:14.231Z,33.1
2019-06-26T12:22:44.289Z,33.6
2019-06-26T12:24:14.386Z,33
2019-06-26T12:25:44.430Z,32.4
2019-06-26T12:27:14.487Z,32.5
2019-06-26T12:28:44.543Z,32.5
2019-06-26T12:30:14.603Z,32
2019-06-26T12:31:44.696Z,32.9
2019-06-26T12:33:14.748Z,32.3
2019-06-26T12:34:45.286Z,32.3
2019-06-26T12:36:14.887Z,32.7
2019-06-26T12:37:44.948Z,33.6
2019-06-26T12:39:15.009Z,34.6
2019-06-26T12:40:45.087Z,34.2
2019-06-26T12:42:15.164Z,35.3
2019-06-26T12:43:45.220Z,33.7
2019-06-26T12:45:15.276Z,33.3
2019-06-26T12:46:45.366Z,34.7
2019-06-26T12:48:16.425Z,34.5
2019-06-26T12:49:45.475Z,33.4
2019-06-26T12:51:15.561Z,33.3
2019-06-26T12:52:45.796Z,33.6
2019-06-26T12:54:15.678Z,33.8
2019-06-26T12:55:45.764Z,34.1
2019-06-26T12:57:15.818Z,34
2019-06-26T12:58:46.005Z,33
2019-06-26T13:00:15.937Z,33.9
2019-06-26T13:01:46.019Z,33.8
2019-06-26T13:03:16.078Z,33
2019-06-26T13:04:46.139Z,33.8
2019-06-26T13:06:16.218Z,32.3
2019-06-26T13:07:46.275Z,31.7
2019-06-26T13:09:16.332Z,33.8
2019-06-26T13:10:49.909Z,32.4
2019-06-26T13:12:16.478Z,34
2019-06-26T13:14:01.321Z,32.7
2019-06-26T13:15:16.601Z,33.8
2019-06-26T13:16:46.681Z,32.8
2019-06-26T13:18:16.734Z,33.8
2019-06-26T13:19:46.831Z,33
2019-06-26T13:21:16.871Z,33.9
2019-06-26T13:22:46.929Z,34.4
2019-06-26T13:24:17.028Z,33.4
2019-06-26T13:25:47.050Z,33.4
2019-06-26T13:27:17.132Z,35.4
2019-06-26T13:28:47.190Z,35.3
2019-06-26T13:30:17.283Z,32.7
2019-06-26T13:31:47.449Z,33.2
2019-06-26T13:33:17.391Z,34.4
2019-06-26T13:34:47.471Z,35.5
2019-06-26T13:36:17.503Z,34.7
2019-06-26T13:37:47.590Z,34.2
2019-06-26T13:39:17.649Z,34.6
2019-06-26T13:40:47.729Z,34.5
2019-06-26T13:42:17.810Z,35.1
2019-06-26T13:43:47.885Z,33.5
2019-06-26T13:45:17.928Z,32.4
2019-06-26T13:46:47.985Z,34
2019-06-26T13:48:18.085Z,32.1
2019-06-26T13:49:48.130Z,32.6
2019-06-26T13:51:21.311Z,31.8
2019-06-26T13:52:48.270Z,32
2019-06-26T13:54:18.327Z,33.5
2019-06-26T13:55:48.386Z,33
2019-06-26T13:57:18.473Z,32.4
2019-06-26T13:58:48.534Z,32.4
2019-06-26T14:00:18.595Z,33.3
2019-06-26T14:01:48.650Z,33.6
2019-06-26T14:03:18.737Z,33.5
2019-06-26T14:04:48.792Z,32.4
2019-06-26T14:06:18.849Z,33
2019-06-26T14:07:48.932Z,32.5
2019-06-26T14:09:18.990Z,33.4
2019-06-26T14:10:49.048Z,32.9
2019-06-26T14:12:19.464Z,32.6
2019-06-26T14:13:49.191Z,33
2019-06-26T14:15:19.247Z,31.8
2019-06-26T14:16:49.308Z,32.7
2019-06-26T14:18:19.391Z,33.2
2019-06-26T14:19:49.448Z,32.4
2019-06-26T14:21:25.328Z,31.4
2019-06-26T14:22:49.588Z,31.1
2019-06-26T14:24:19.651Z,31.3
2019-06-26T14:25:49.707Z,32.4
2019-06-26T14:27:19.766Z,30.7
2019-06-26T14:28:53.006Z,31.4
2019-06-26T14:30:19.911Z,30.6
2019-06-26T14:31:49.990Z,31.2
2019-06-26T14:33:20.094Z,31.7
2019-06-26T14:41:21.193Z,31.3
2019-06-26T14:42:51.270Z,31.5
2019-06-26T14:44:21.328Z,31.8
2019-06-26T14:45:51.392Z,32.2
2019-06-26T14:47:21.443Z,32.9
2019-06-26T14:48:51.526Z,31.8
2019-06-26T14:50:21.587Z,32.6
2019-06-26T14:51:51.648Z,32.6
2019-06-26T14:53:21.729Z,32
2019-06-26T14:54:51.792Z,32.5
2019-06-26T14:56:21.846Z,32.5
2019-06-26T14:57:51.906Z,31.1
2019-06-26T14:59:21.987Z,33.2
2019-06-26T15:00:52.045Z,32.1
2019-06-26T15:02:22.106Z,31.7
2019-06-26T15:03:52.186Z,31.5
2019-06-26T15:05:22.243Z,32.2
2019-06-26T15:06:52.302Z,31.7
2019-06-26T15:08:22.359Z,31.7
2019-06-26T15:09:52.455Z,31.5
2019-06-26T15:11:22.510Z,31.5
2019-06-26T15:12:52.565Z,32.7
2019-06-26T15:14:22.647Z,31.7
2019-06-26T15:15:54.804Z,32.5
2019-06-26T15:17:22.765Z,32.4
2019-06-26T15:18:52.848Z,33.1
2019-06-26T15:20:22.905Z,32.4
2019-06-26T15:21:58.098Z,33.4
2019-06-26T15:23:23.021Z,32.4
2019-06-26T15:24:53.105Z,32.4
2019-06-26T15:26:23.162Z,32.6
2019-06-26T15:27:53.226Z,32.6
2019-06-26T15:29:23.308Z,31.1
2019-06-26T15:30:53.369Z,31.9
2019-06-26T15:32:23.429Z,32.1
2019-06-26T15:33:53.515Z,32.7
2019-06-26T15:35:23.574Z,31.4
2019-06-26T15:36:53.760Z,32.4
2019-06-26T15:38:23.697Z,32.5
2019-06-26T15:39:53.784Z,34.7
2019-06-26T15:41:23.844Z,33.3
2019-06-26T15:42:53.919Z,33.7
2019-06-26T15:44:23.998Z,34.3
2019-06-26T15:45:54.058Z,34
2019-06-26T15:47:24.115Z,34.1
2019-06-26T15:48:54.175Z,33.6
2019-06-26T15:50:24.258Z,33.2
2019-06-26T15:51:54.316Z,32.1
2019-06-26T15:53:24.390Z,31.9
2019-06-26T15:54:54.482Z,31.5
2019-06-26T15:56:24.518Z,31.7
2019-06-26T15:57:54.579Z,32.5
2019-06-26T15:59:24.664Z,32.9
2019-06-26T16:00:54.722Z,32.4
2019-06-26T16:02:24.779Z,31.2
2019-06-26T16:03:54.839Z,31.6
2019-06-26T16:05:24.924Z,31.7
2019-06-26T16:06:54.981Z,30.6
2019-06-26T16:08:25.041Z,30.6
2019-06-26T16:09:55.123Z,30.7
2019-06-26T16:11:25.182Z,30.9
2019-06-26T16:12:55.242Z,30.8
2019-06-26T16:14:25.304Z,31.5
2019-06-26T16:15:55.421Z,32.2
2019-06-26T16:17:25.455Z,31.5
2019-06-26T16:18:55.515Z,31.3
2019-06-26T16:20:25.599Z,30.5
2019-06-26T16:21:55.655Z,31
2019-06-26T16:23:25.715Z,31.4
2019-06-26T16:24:55.799Z,29.8
2019-06-26T16:26:25.861Z,30
2019-06-26T16:28:04.992Z,31
2019-06-26T16:29:25.972Z,31.3
2019-06-26T16:30:56.059Z,30.4
2019-06-26T16:32:26.115Z,30.7
2019-06-26T16:33:56.179Z,31.2
2019-06-26T16:35:26.261Z,31.1
2019-06-26T16:36:56.320Z,30.6
2019-06-26T16:38:26.387Z,30.7
2019-06-26T16:39:56.436Z,30.8
2019-06-26T16:41:26.521Z,30.6
2019-06-26T16:42:56.576Z,30.7
2019-06-26T16:44:26.634Z,30.5
2019-06-26T16:45:56.719Z,30.5
2019-06-26T16:47:26.777Z,30.6
2019-06-26T16:48:56.834Z,29.9
2019-06-26T16:50:26.894Z,30.5
2019-06-26T16:51:56.976Z,30
2019-06-26T16:53:27.039Z,30.7
2019-06-26T16:54:57.094Z,29.7
2019-06-26T16:56:27.175Z,29.6
2019-06-26T16:57:57.256Z,30.2
2019-06-26T16:59:27.340Z,29.9
2019-06-26T17:07:28.616Z,31.4
2019-06-26T17:08:58.674Z,32
2019-06-26T17:10:28.732Z,31.5
2019-06-26T17:11:58.816Z,31.2
2019-06-26T17:13:28.927Z,31
2019-06-26T17:14:58.938Z,31.2
2019-06-26T17:16:29.024Z,31.2
2019-06-26T17:17:59.090Z,30.5
2019-06-26T17:19:29.142Z,29.9
2019-06-26T17:20:59.198Z,30
2019-06-26T17:22:29.289Z,30.6
2019-06-26T17:23:59.350Z,31.5
2019-06-26T17:25:29.410Z,32.1
2019-06-26T17:26:59.609Z,31
2019-06-26T17:28:29.553Z,31.7
2019-06-26T17:29:59.611Z,31.4
2019-06-26T17:31:29.697Z,31.2
2019-06-26T17:32:59.755Z,31.9
2019-06-26T17:34:29.813Z,31.9
2019-06-26T17:35:59.872Z,32
2019-06-26T17:37:29.957Z,32
2019-06-26T17:39:00.016Z,30.9
2019-06-26T17:40:30.076Z,32
2019-06-26T17:42:00.181Z,32
2019-06-26T17:43:30.238Z,31.8
2019-06-26T17:45:00.293Z,32.4
2019-06-26T17:46:30.351Z,31.6
2019-06-26T17:48:00.457Z,32.2
2019-06-26T17:49:30.497Z,32.6
2019-06-26T17:51:00.557Z,32.3
2019-06-26T17:52:33.506Z,31.8
2019-06-26T17:54:00.697Z,31
2019-06-26T17:55:30.757Z,31
2019-06-26T17:57:00.816Z,30.8
2019-06-26T17:58:30.905Z,31.6
2019-06-26T18:00:00.959Z,31.1
2019-06-26T18:01:31.018Z,30.8
2019-06-26T18:03:01.105Z,31.1
2019-06-26T18:04:31.157Z,31.2
2019-06-26T18:06:01.215Z,34.4
2019-06-26T18:07:31.310Z,34.1
2019-06-26T18:09:01.382Z,32.3
2019-06-26T18:10:31.424Z,32.5
2019-06-26T18:12:01.474Z,32.8
2019-06-26T18:13:31.556Z,32.8
2019-06-26T18:15:01.623Z,32.4
2019-06-26T18:16:31.674Z,33.3
2019-06-26T18:18:01.764Z,33.1
2019-06-26T18:19:31.834Z,33.8
2019-06-26T18:21:01.877Z,35.7
2019-06-26T18:22:31.972Z,35.8
2019-06-26T18:24:02.034Z,35.9
2019-06-26T18:25:32.095Z,36
2019-06-26T18:27:02.160Z,36.3
2019-06-26T18:28:32.242Z,36.8
2019-06-26T18:30:02.298Z,37.6
2019-06-26T18:31:32.351Z,37.3
2019-06-26T18:33:02.436Z,37.8
2019-06-26T18:34:32.495Z,38.2
2019-06-26T18:36:02.553Z,38.8
2019-06-26T18:37:32.622Z,39
2019-06-26T18:39:02.715Z,38.5
2019-06-26T18:40:32.763Z,38.4
2019-06-26T18:42:02.826Z,38.5
2019-06-26T18:43:32.909Z,38.3
2019-06-26T18:45:02.978Z,38.3
2019-06-26T18:46:33.031Z,38.4
2019-06-26T18:48:03.101Z,38.8
2019-06-26T18:49:33.173Z,38.7
2019-06-26T18:51:03.232Z,39
2019-06-26T18:52:33.290Z,39
2019-06-26T18:54:03.375Z,38.9
2019-06-26T18:55:33.431Z,40
2019-06-26T18:57:03.490Z,40
2019-06-26T18:58:33.613Z,40.1
2019-06-26T19:00:03.854Z,40
2019-06-26T19:01:33.741Z,40
2019-06-26T19:03:03.794Z,40.3
2019-06-26T19:04:33.876Z,40.2
2019-06-26T19:06:03.933Z,40.4
2019-06-26T19:07:33.991Z,40.7
2019-06-26T19:09:04.076Z,40.7
2019-06-26T19:10:34.138Z,40.6
2019-06-26T19:12:04.194Z,40.7
2019-06-26T19:13:34.252Z,40.6
2019-06-26T19:15:04.335Z,40.5
2019-06-26T19:16:36.349Z,40.5
2019-06-26T19:18:04.450Z,41
2019-06-26T19:19:34.534Z,41.2
2019-06-26T19:21:04.594Z,41.5
2019-06-26T19:22:34.649Z,41.7
2019-06-26T19:24:09.931Z,42.1
2019-06-26T19:25:34.868Z,42.2
2019-06-26T19:32:05.901Z,44.2
2019-06-26T19:33:35.976Z,44.3
2019-06-26T19:35:18.284Z,43.9
2019-06-26T19:36:49.385Z,44.6
2019-06-26T19:38:06.162Z,44.6
2019-06-26T19:39:36.250Z,44.6
2019-06-26T19:41:08.567Z,44.6
2019-06-26T19:42:36.361Z,44.8
2019-06-26T19:44:08.778Z,45.1
2019-06-26T19:45:36.503Z,44.7
2019-06-26T19:47:06.571Z,44.4
2019-06-26T19:48:36.622Z,44.4
2019-06-26T19:50:06.704Z,44
2019-06-26T19:51:36.763Z,43.9
2019-06-26T19:53:06.821Z,43.6
2019-06-26T19:54:36.881Z,43.6
2019-06-26T19:56:06.964Z,43.4
2019-06-26T19:57:37.030Z,43.6
2019-06-26T19:59:07.088Z,43.8
2019-06-26T20:00:37.166Z,43.3
2019-06-26T20:02:07.254Z,42.8
2019-06-26T20:03:37.313Z,43
2019-06-26T20:05:07.369Z,43.3
2019-06-26T20:06:37.474Z,43.4
2019-06-26T20:08:07.534Z,43.7
2019-06-26T20:09:37.596Z,44
2019-06-26T20:11:07.649Z,44.2
2019-06-26T20:12:37.753Z,44
2019-06-26T20:14:07.883Z,44.2
2019-06-26T20:15:37.851Z,44.8
2019-06-26T20:17:07.940Z,44.9
2019-06-26T20:18:38.021Z,45
2019-06-26T20:20:08.141Z,45.1
2019-06-26T20:21:38.198Z,45.8
2019-06-26T20:23:08.287Z,48.3
2019-06-26T20:24:43.791Z,49.1
2019-06-26T20:26:08.480Z,50
2019-06-26T20:27:38.588Z,50.2
2019-06-26T20:29:08.586Z,51.1
2019-06-26T20:30:38.650Z,51.3
2019-06-26T20:32:08.713Z,51.6
2019-06-26T20:33:38.787Z,51.7
2019-06-26T20:35:08.845Z,51.9
2019-06-26T20:36:38.903Z,52.1
2019-06-26T20:38:08.989Z,52.3
2019-06-26T20:39:39.063Z,52.4
2019-06-26T20:41:09.102Z,52.6
2019-06-26T20:42:39.190Z,52.9
2019-06-26T20:44:09.251Z,53
2019-06-26T20:45:39.310Z,53
2019-06-26T20:47:09.366Z,52.9
2019-06-26T20:48:39.453Z,52.7
2019-06-26T20:50:09.513Z,52.3
2019-06-26T20:51:39.572Z,52.1
2019-06-26T20:53:09.654Z,52.6
2019-06-26T20:54:39.713Z,52.9
2019-06-26T20:56:09.771Z,52.7
2019-06-26T20:57:39.828Z,53